createdAt,value
2022-07-26T00:01:58.298Z,20.69
2022-07-26T00:08:18.196Z,20.57
2022-07-26T00:14:41.150Z,20.49
2022-07-26T00:21:01.152Z,20.42
2022-07-26T00:27:24.142Z,20.34
2022-07-26T00:33:44.144Z,20.25
2022-07-26T00:40:07.169Z,20.16
2022-07-26T00:46:27.214Z,20.06
2022-07-26T00:52:50.179Z,19.96
2022-07-26T00:59:10.691Z,19.95
2022-07-26T01:05:33.178Z,19.91
2022-07-26T01:11:53.154Z,19.89
2022-07-26T01:18:16.169Z,19.81
2022-07-26T01:24:36.146Z,19.75
2022-07-26T01:30:59.165Z,19.71
2022-07-26T01:37:19.153Z,19.69
2022-07-26T01:43:42.152Z,19.66
2022-07-26T01:50:02.202Z,19.66
2022-07-26T01:56:25.204Z,19.66
2022-07-26T02:02:45.269Z,19.6
2022-07-26T02:09:11.618Z,19.44
2022-07-26T02:15:28.180Z,19.38
2022-07-26T02:21:51.148Z,19.31
2022-07-26T02:28:11.194Z,19.31
2022-07-26T02:34:34.218Z,19.35
2022-07-26T02:40:54.184Z,19.28
2022-07-26T02:47:17.174Z,19.24
2022-07-26T02:53:37.153Z,19.25
2022-07-26T03:00:00.199Z,19.28
2022-07-26T03:06:20.142Z,19.29
2022-07-26T03:12:43.201Z,19.17
2022-07-26T03:19:03.146Z,19.11
2022-07-26T03:25:26.169Z,19.09
2022-07-26T03:31:46.141Z,19.16
2022-07-26T03:38:09.148Z,19.27
2022-07-26T03:44:29.151Z,19.28
2022-07-26T03:50:52.167Z,19.27
2022-07-26T04:06:59.076Z,19.43
2022-07-26T04:13:19.147Z,19.5
2022-07-26T04:19:42.144Z,19.49
2022-07-26T04:26:02.195Z,19.44
2022-07-26T04:32:25.153Z,19.47
2022-07-26T04:38:45.189Z,19.53
2022-07-26T04:45:08.765Z,19.59
2022-07-26T04:51:28.170Z,19.56
2022-07-26T04:57:51.146Z,19.57
2022-07-26T05:04:11.466Z,19.53
2022-07-26T05:10:34.202Z,19.45
2022-07-26T05:16:54.177Z,19.17
2022-07-26T05:23:17.191Z,19.09
2022-07-26T05:29:37.165Z,19.12
2022-07-26T05:36:00.165Z,19.14
2022-07-26T05:42:20.171Z,19.14
2022-07-26T05:48:43.175Z,19.23
2022-07-26T05:55:03.186Z,19.33
2022-07-26T06:01:26.147Z,19.27
2022-07-26T06:07:46.180Z,19.21
2022-07-26T06:14:09.511Z,19.17
2022-07-26T06:20:29.160Z,19.2
2022-07-26T06:26:56.477Z,19.27
2022-07-26T06:33:12.155Z,19.4
2022-07-26T06:39:35.152Z,19.57
2022-07-26T06:45:55.225Z,19.56
2022-07-26T06:52:18.173Z,19.57
2022-07-26T06:58:38.170Z,19.62
2022-07-26T07:05:01.210Z,19.59
2022-07-26T07:11:21.146Z,19.59
2022-07-26T07:17:44.170Z,19.63
2022-07-26T07:24:04.145Z,19.67
2022-07-26T07:30:27.349Z,19.74
2022-07-26T07:36:47.388Z,19.76
2022-07-26T07:43:10.148Z,19.82
2022-07-26T07:49:30.208Z,19.94
2022-07-26T07:55:55.405Z,20.08
2022-07-26T08:02:13.169Z,20.22
2022-07-26T08:08:36.150Z,20.32
2022-07-26T08:14:56.141Z,20.58
2022-07-26T08:21:19.178Z,20.92
2022-07-26T08:27:41.019Z,21.13
2022-07-26T08:34:02.230Z,21.17
2022-07-26T08:40:22.156Z,21.55
2022-07-26T08:46:45.162Z,21.9
2022-07-26T08:53:05.154Z,21.9
2022-07-26T08:59:28.148Z,21.92
2022-07-26T09:05:48.189Z,22.26
2022-07-26T09:12:11.181Z,22.08
2022-07-26T09:18:31.148Z,21.97
2022-07-26T09:24:54.177Z,21.91
2022-07-26T09:31:14.214Z,21.74
2022-07-26T09:37:37.186Z,21.72
2022-07-26T09:54:03.077Z,22.12
2022-07-26T10:00:23.145Z,22.32
2022-07-26T10:06:46.150Z,22.59
2022-07-26T10:13:06.178Z,23.06
2022-07-26T10:19:29.150Z,23.34
2022-07-26T10:25:49.178Z,23.4
2022-07-26T10:32:12.153Z,23.24
2022-07-26T10:38:32.158Z,23.16
2022-07-26T10:44:55.171Z,23.09
2022-07-26T10:51:15.146Z,22.99
2022-07-26T10:57:38.180Z,23.1
2022-07-26T11:03:58.147Z,23.19
2022-07-26T11:10:21.173Z,23.29
2022-07-26T11:16:41.158Z,23.5
2022-07-26T11:23:04.159Z,23.57
2022-07-26T11:29:24.182Z,23.55
2022-07-26T11:35:47.150Z,23.66
2022-07-26T11:42:07.169Z,23.71
2022-07-26T11:48:30.418Z,23.71
2022-07-26T11:54:50.370Z,23.8
2022-07-26T12:01:13.178Z,24.07
2022-07-26T12:07:33.156Z,24.34
2022-07-26T12:13:56.325Z,25.09
2022-07-26T12:20:17.345Z,25.37
2022-07-26T12:26:39.149Z,24.88
2022-07-26T12:32:59.166Z,23.69
2022-07-26T12:39:22.143Z,21.63
2022-07-26T12:45:42.225Z,20.46
2022-07-26T12:52:07.335Z,19.89
2022-07-26T12:58:27.182Z,19.66
2022-07-26T13:04:50.227Z,19.82
2022-07-26T13:11:10.151Z,20.42
2022-07-26T13:17:33.173Z,21.56
2022-07-26T13:23:53.152Z,22.42
2022-07-26T13:30:16.203Z,22.44
2022-07-26T13:36:36.156Z,22.99
2022-07-26T13:42:59.160Z,23.52
2022-07-26T13:49:19.224Z,24.22
2022-07-26T13:55:42.149Z,24.68
2022-07-26T14:02:02.359Z,25.05
2022-07-26T14:08:25.147Z,25.07
2022-07-26T14:14:45.145Z,25.74
2022-07-26T14:21:10.662Z,26.06
2022-07-26T14:27:28.140Z,25.81
2022-07-26T14:33:51.181Z,26.03
2022-07-26T14:40:11.152Z,26.14
2022-07-26T14:46:34.151Z,26.84
2022-07-26T14:52:54.157Z,27.55
2022-07-26T14:59:17.150Z,27.74
2022-07-26T15:05:37.184Z,27.06
2022-07-26T15:12:00.324Z,26.59
2022-07-26T15:18:20.377Z,26.34
2022-07-26T15:41:25.213Z,24.52
2022-07-26T15:48:01.245Z,24.14
2022-07-26T15:54:08.421Z,23.85
2022-07-26T16:00:31.197Z,23.73
2022-07-26T16:06:51.146Z,23.89
2022-07-26T16:13:14.158Z,25.14
2022-07-26T16:19:34.154Z,26.04
2022-07-26T16:25:57.185Z,26.44
2022-07-26T16:32:17.144Z,26.96
2022-07-26T16:38:40.179Z,27.6
2022-07-26T16:45:00.157Z,27.78
2022-07-26T16:51:23.180Z,27.35
2022-07-26T16:57:43.180Z,27.11
2022-07-26T17:04:06.155Z,26.39
2022-07-26T17:10:26.172Z,25.41
2022-07-26T17:16:49.285Z,24.42
2022-07-26T17:23:09.171Z,23.68
2022-07-26T17:29:32.143Z,23.24
2022-07-26T17:35:52.293Z,23.05
2022-07-26T17:42:15.152Z,23.02
2022-07-26T17:48:35.238Z,23.1
2022-07-26T17:54:58.150Z,23.07
2022-07-26T18:01:18.195Z,22.86
2022-07-26T18:07:41.174Z,22.56
2022-07-26T18:14:01.144Z,22.45
2022-07-26T18:20:24.501Z,22.43
2022-07-26T18:26:44.157Z,22.16
2022-07-26T18:33:07.436Z,21.98
2022-07-26T18:39:30.461Z,21.85
2022-07-26T18:45:50.155Z,21.85
2022-07-26T18:52:10.171Z,21.84
2022-07-26T18:58:33.246Z,21.85
2022-07-26T19:04:53.172Z,21.82
2022-07-26T19:11:16.162Z,21.67
2022-07-26T19:17:36.170Z,21.56
2022-07-26T19:23:59.160Z,21.47
2022-07-26T19:30:19.138Z,21.4
2022-07-26T19:36:42.184Z,21.32
2022-07-26T19:43:02.142Z,21.21
2022-07-26T19:49:25.331Z,21.09
2022-07-26T19:55:45.153Z,20.93
2022-07-26T20:02:08.277Z,20.8
2022-07-26T20:08:28.187Z,20.68
2022-07-26T20:14:51.176Z,20.53
2022-07-26T20:21:11.179Z,20.4
2022-07-26T20:27:34.153Z,20.31
2022-07-26T20:33:54.182Z,20.22
2022-07-26T20:40:17.720Z,20.1
2022-07-26T20:46:37.214Z,19.89
2022-07-26T20:53:00.190Z,19.72
2022-07-26T20:59:20.140Z,19.61
2022-07-26T21:15:49.058Z,19.53
2022-07-26T21:22:09.145Z,19.5
2022-07-26T21:28:32.160Z,19.45
2022-07-26T21:34:52.260Z,19.36
2022-07-26T21:41:15.142Z,19.32
2022-07-26T21:47:35.168Z,19.32
2022-07-26T21:53:58.150Z,19.36
2022-07-26T22:00:18.141Z,19.39
2022-07-26T22:23:15.136Z,19.33
2022-07-26T22:29:35.796Z,19.29
2022-07-26T22:35:58.144Z,19.27
2022-07-26T22:42:18.175Z,19.23
2022-07-26T22:48:44.476Z,19.22
2022-07-26T22:55:01.145Z,19.17
2022-07-26T23:01:24.209Z,19.14
2022-07-26T23:07:45.983Z,19.14
2022-07-26T23:14:07.148Z,19.13
2022-07-26T23:20:27.170Z,19.06
2022-07-26T23:26:50.141Z,18.98
2022-07-26T23:33:10.172Z,18.89
2022-07-26T23:39:33.193Z,18.77
2022-07-26T23:45:53.156Z,18.71
2022-07-26T23:52:16.143Z,18.66
2022-07-26T23:58:36.167Z,18.56
